Time;durP1;ratioP1;P1;durP2;ratioP2;P2;SDS_P1;SDS_P2;PMS_P1;PMS_P2;Temp;Humidity;BMP_temperature;BMP_pressure;BME280_temperature;BME280_humidity;BME280_pressure;Samples;Min_cycle;Max_cycle;Signal;HPM_P1;HPM_P2
2023/07/06 04:15:32;;;;;;;1.40;0.57;;;18.00;99.90;;;;;;20973110;28;20216;-80
2023/07/06 04:25:34;;;;;;;1.53;0.80;;;;;;;;;;20911820;28;20225;-83
2023/07/06 04:35:36;;;;;;;2.37;0.80;;;;;;;;;;20940277;28;20707;-80
2023/07/06 04:45:38;;;;;;;1.13;0.60;;;;;;;;;;20910299;28;20241;-80
2023/07/06 04:55:39;;;;;;;1.43;0.90;;;;;;;;;;20921727;28;20636;-81
2023/07/06 05:05:45;;;;;;;1.20;0.60;;;18.30;99.90;;;;;;20897570;28;20290;-81
2023/07/06 05:15:50;;;;;;;0.90;0.70;;;;;;;;;;20933261;28;20247;-78
2023/07/06 05:25:52;;;;;;;2.73;0.90;;;;;;;;;;20909719;28;20226;-79
2023/07/06 05:35:54;;;;;;;1.90;0.90;;;;;;;;;;20949960;28;20266;-79
2023/07/06 05:45:56;;;;;;;3.67;0.60;;;;;;;;;;20916820;28;20299;-81
2023/07/06 05:55:59;;;;;;;1.13;0.70;;;;;;;;;;20969589;28;20217;-78
2023/07/06 06:06:01;;;;;;;1.23;0.67;;;;;;;;;;20941539;28;20213;-78
2023/07/06 06:16:03;;;;;;;2.83;0.83;;;;;;;;;;20896977;28;20250;-80
2023/07/06 06:26:04;;;;;;;0.97;0.67;;;;;;;;;;20933307;28;20675;-79
2023/07/06 06:36:08;;;;;;;1.53;0.80;;;;;;;;;;20948923;28;20722;-81
2023/07/06 06:46:10;;;;;;;1.97;0.70;;;19.90;99.90;;;;;;20907588;28;20211;-80
2023/07/06 06:56:12;;;;;;;1.27;0.70;;;;;;;;;;20935123;28;20236;-79
2023/07/06 07:06:14;;;;;;;1.83;0.93;;;;;;;;;;20967411;28;20202;-79
2023/07/06 07:16:16;;;;;;;1.10;0.50;;;;;;;;;;20946306;28;20215;-79
2023/07/06 07:26:19;;;;;;;2.37;0.60;;;;;;;;;;20948001;28;20652;-79
2023/07/06 07:36:21;;;;;;;2.10;0.90;;;21.20;99.90;;;;;;20964626;28;20604;-79
2023/07/06 07:46:24;;;;;;;0.60;0.40;;;;;;;;;;20937099;28;20258;-78
2023/07/06 07:56:26;;;;;;;1.23;0.60;;;;;;;;;;20950157;28;20231;-78
2023/07/06 08:06:28;;;;;;;1.13;0.50;;;;;;;;;;20957648;28;20222;-77
2023/07/06 08:16:32;;;;;;;2.87;0.50;;;;;;;;;;20966257;28;20644;-78
2023/07/06 08:26:35;;;;;;;0.87;0.60;;;;;;;;;;20952130;28;20221;-78
2023/07/06 08:36:37;;;;;;;0.93;0.50;;;;;;;;;;20896812;28;20286;-78
2023/07/06 08:46:47;;;;;;;0.70;0.50;;;23.00;92.20;;;;;;20926753;28;20214;-80
2023/07/06 08:56:50;;;;;;;1.03;0.40;;;;;;;;;;20917039;28;20224;-79
2023/07/06 09:06:54;;;;;;;1.43;0.57;;;23.40;90.80;;;;;;20956509;28;20293;-77
2023/07/06 09:16:57;;;;;;;1.17;0.50;;;;;;;;;;20936954;28;20304;-76
2023/07/06 09:26:59;;;;;;;1.15;0.60;;;;;;;;;;20932857;28;20769;-76
2023/07/06 09:37:01;;;;;;;0.73;0.43;;;;;;;;;;20965186;28;20229;-75
2023/07/06 09:47:04;;;;;;;0.73;0.50;;;;;;;;;;20955629;28;20228;-77
2023/07/06 09:57:15;;;;;;;1.33;0.60;;;;;;;;;;20967229;28;20236;-77
2023/07/06 10:07:29;;;;;;;2.97;0.60;;;;;;;;;;20957283;28;20639;-78
2023/07/06 10:17:38;;;;;;;1.33;0.50;;;;;;;;;;20963057;28;20223;-78
2023/07/06 10:27:43;;;;;;;1.37;0.53;;;;;;;;;;20863512;28;20245;-79
2023/07/06 10:37:45;;;;;;;2.40;1.07;;;;;;;;;;20973869;28;20278;-78
2023/07/06 10:47:49;;;;;;;1.30;0.60;;;23.80;92.60;;;;;;20964422;28;20279;-77
2023/07/06 10:57:54;;;;;;;1.52;0.82;;;;;;;;;;20941576;28;20231;-78
2023/07/06 11:07:57;;;;;;;1.42;0.57;;;;;;;;;;20948281;28;20222;-79
2023/07/06 11:18:04;;;;;;;1.17;0.70;;;;;;;;;;20951783;28;20232;-81
2023/07/06 11:28:10;;;;;;;1.13;0.60;;;;;;;;;;20967445;28;20218;-79
2023/07/06 11:38:24;;;;;;;0.90;0.60;;;;;;;;;;20943952;28;20231;-78
2023/07/06 11:48:26;;;;;;;1.35;0.60;;;;;;;;;;20952983;28;20219;-79
2023/07/06 11:58:42;;;;;;;1.33;0.60;;;;;;;;;;20959785;28;20227;-80
2023/07/06 12:08:45;;;;;;;0.90;0.40;;;;;;;;;;20965570;28;20224;-78
2023/07/06 12:18:56;;;;;;;1.30;0.60;;;25.80;87.10;;;;;;20955164;28;20280;-79
2023/07/06 12:28:59;;;;;;;0.63;0.50;;;;;;;;;;20958557;28;20210;-78
2023/07/06 12:39:02;;;;;;;1.05;0.70;;;;;;;;;;20929521;28;20821;-79
2023/07/06 12:49:16;;;;;;;2.00;0.80;;;27.00;77.50;;;;;;20932082;28;20212;-81
2023/07/06 12:59:21;;;;;;;1.23;0.60;;;;;;;;;;20980634;28;20656;-80
2023/07/06 13:09:29;;;;;;;1.27;0.80;;;;;;;;;;20971649;28;20265;-80
2023/07/06 13:19:34;;;;;;;1.08;0.60;;;;;;;;;;20970078;28;20229;-80
2023/07/06 13:29:36;;;;;;;1.27;0.55;;;;;;;;;;20963564;28;20234;-79
2023/07/06 13:39:38;;;;;;;2.53;0.77;;;;;;;;;;20939417;28;20277;-78
2023/07/06 13:49:41;;;;;;;1.10;0.50;;;20.00;79.10;;;;;;20952732;28;20275;-81
2023/07/06 13:59:45;;;;;;;13.27;0.98;;;;;;;;;;20965718;28;20252;-80
2023/07/06 14:09:47;;;;;;;1.02;0.52;;;;;;;;;;20973278;28;20221;-80
2023/07/06 14:19:49;;;;;;;1.35;0.52;;;;;;;;;;20973391;28;20249;-79
2023/07/06 14:29:51;;;;;;;0.88;0.55;;;;;;;;;;20943092;28;20211;-78
2023/07/06 14:39:53;;;;;;;0.70;0.50;;;;;;;;;;20955955;28;20698;-81
2023/07/06 14:49:54;;;;;;;1.35;0.60;;;;;;;;;;20938296;28;20228;-80
2023/07/06 15:00:00;;;;;;;1.27;0.60;;;;;;;;;;20960655;28;20739;-80
2023/07/06 15:10:01;;;;;;;1.52;0.63;;;;;;;;;;20970517;28;20277;-78
2023/07/06 15:20:06;;;;;;;1.05;0.70;;;27.10;77.40;;;;;;20932280;28;20258;-79
2023/07/06 15:30:08;;;;;;;1.38;0.60;;;;;;;;;;20953936;28;20210;-79
2023/07/06 15:40:15;;;;;;;1.00;0.60;;;;;;;;;;20941117;28;20227;-79
2023/07/06 15:50:17;;;;;;;0.90;0.50;;;;;;;;;;20985145;28;20228;-81
2023/07/06 16:00:19;;;;;;;1.48;0.70;;;;;;;;;;20948220;28;20248;-79
2023/07/06 16:10:21;;;;;;;0.88;0.55;;;;;;;;;;20960270;28;20233;-78
2023/07/06 16:20:22;;;;;;;1.08;0.55;;;;;;;;;;20960871;28;20726;-81
2023/07/06 16:30:24;;;;;;;1.05;0.50;;;;;;;;;;20975049;28;20233;-77
2023/07/06 16:40:29;;;;;;;1.83;0.93;;;;;;;;;;20930371;28;20239;-80
2023/07/06 16:50:33;;;;;;;0.95;0.50;;;;;;;;;;20940958;28;20240;-81
2023/07/06 17:00:35;;;;;;;1.02;0.50;;;;;;;;;;20897510;28;20223;-81
2023/07/06 17:10:37;;;;;;;0.68;0.43;;;;;;;;;;20899095;28;20756;-81
2023/07/06 17:20:38;;;;;;;0.95;0.40;;;;;;;;;;20899824;28;20286;-82
2023/07/06 17:30:40;;;;;;;2.60;0.60;;;;;;;;;;20923693;28;20283;-83
2023/07/06 17:40:42;;;;;;;1.15;0.55;;;;;;;;;;20938965;28;20243;-81
2023/07/06 17:50:43;;;;;;;1.70;0.60;;;;;;;;;;20914525;28;20590;-82
2023/07/06 18:00:45;;;;;;;1.30;0.50;;;;;;;;;;20948280;28;20220;-80
2023/07/06 18:10:48;;;;;;;1.48;0.63;;;;;;;;;;20943792;28;20266;-80
2023/07/06 18:20:50;;;;;;;2.17;0.60;;;;;;;;;;20919681;28;20544;-82
2023/07/06 18:30:51;;;;;;;1.15;0.82;;;;;;;;;;20943193;28;20230;-84
2023/07/06 18:40:57;;;;;;;0.90;0.70;;;;;;;;;;20953083;28;20262;-82
2023/07/06 18:50:59;;;;;;;0.55;0.40;;;;;;;;;;20920037;28;20563;-82
2023/07/06 19:01:04;;;;;;;1.00;0.60;;;;;;;;;;20953709;28;20242;-81
2023/07/06 19:11:09;;;;;;;1.10;0.60;;;;;;;;;;20941717;28;20277;-81
2023/07/06 19:21:12;;;;;;;1.10;0.60;;;;;;;;;;20920222;28;20226;-82
2023/07/06 19:31:17;;;;;;;1.35;0.60;;;;;;;;;;20911956;28;20246;-80
2023/07/06 19:41:19;;;;;;;3.75;0.98;;;;;;;;;;20944969;28;20318;-80
2023/07/06 19:51:22;;;;;;;1.85;0.63;;;;;;;;;;20910946;28;20288;-81
2023/07/06 20:01:24;;;;;;;2.72;0.60;;;;;;;;;;20921329;28;20235;-80
2023/07/06 20:11:26;;;;;;;8.23;1.25;;;;;;;;;;20938161;28;20222;-78
2023/07/06 20:21:28;;;;;;;1.27;0.77;;;;;;;;;;20947057;28;20636;-80
2023/07/06 20:31:32;;;;;;;2.10;1.40;;;24.30;89.20;;;;;;20935336;28;20278;-80
2023/07/06 20:41:34;;;;;;;2.38;1.10;;;;;;;;;;20919896;28;20919;-81
2023/07/06 20:51:36;;;;;;;12.20;3.35;;;;;;;;;;20968624;28;20272;-79
2023/07/06 21:01:38;;;;;;;7.45;2.25;;;;;;;;;;20939184;28;20255;-81
2023/07/06 21:11:40;;;;;;;1.88;0.95;;;;;;;;;;20934669;28;20222;-82
2023/07/06 21:21:42;;;;;;;2.95;0.88;;;23.60;91.90;;;;;;20947429;28;20228;-81
2023/07/06 21:31:45;;;;;;;1.73;0.80;;;;;;;;;;20943518;28;20210;-80
2023/07/06 21:41:46;;;;;;;1.27;0.75;;;;;;;;;;20968968;28;20574;-80
2023/07/06 21:51:49;;;;;;;5.30;1.45;;;;;;;;;;20940812;28;20531;-80
2023/07/06 22:01:51;;;;;;;1.27;0.70;;;;;;;;;;20952940;28;20244;-81
2023/07/06 22:11:53;;;;;;;1.35;0.60;;;;;;;;;;20906973;28;20303;-82
2023/07/06 22:21:55;;;;;;;2.83;0.82;;;;;;;;;;20930366;28;20232;-82
2023/07/06 22:31:57;;;;;;;3.63;0.80;;;;;;;;;;20934205;28;20295;-82
2023/07/06 22:41:58;;;;;;;0.93;0.60;;;;;;;;;;20944748;28;20232;-82
2023/07/06 22:52:01;;;;;;;1.73;0.90;;;21.40;94.30;;;;;;20957807;28;20238;-81
2023/07/06 23:02:02;;;;;;;0.90;0.60;;;;;;;;;;20923539;28;20281;-82
2023/07/06 23:12:04;;;;;;;3.08;1.02;;;;;;;;;;20919497;28;20294;-82
2023/07/06 23:22:07;;;;;;;3.00;1.05;;;22.20;98.20;;;;;;20950633;28;20239;-82
2023/07/06 23:32:09;;;;;;;2.20;0.80;;;;;;;;;;20932026;28;20288;-81
2023/07/06 23:42:11;;;;;;;1.90;0.90;;;;;;;;;;20928575;28;20740;-81
2023/07/06 23:52:13;;;;;;;2.70;1.03;;;;;;;;;;20898218;28;20311;-83
